Time;durP1;ratioP1;P1;durP2;ratioP2;P2;SDS_P1;SDS_P2;PMS_P1;PMS_P2;Temp;Humidity;BMP_temperature;BMP_pressure;BME280_temperature;BME280_humidity;BME280_pressure;Samples;Min_cycle;Max_cycle;Signal;HPM_P1;HPM_P2
2021/09/12 00:01:20;;;;;;;0.10;0.10;;;;;;;;;;10477570;28;20064;-65
2021/09/12 00:06:26;;;;;;;0.00;0.00;;;;;;;;;;10473861;28;20041;-65
2021/09/12 00:11:29;;;;;;;0.00;0.00;;;;;;;;;;10473290;28;20043;-66
2021/09/12 00:16:32;;;;;;;0.00;0.00;;;;;;;;;;10478293;28;20125;-65
2021/09/12 00:21:36;;;;;;;0.00;0.00;;;;;;;;;;10464072;28;20055;-66
2021/09/12 00:26:39;;;;;;;0.00;0.00;;;;;;;;;;10472720;28;20032;-66
2021/09/12 00:31:42;;;;;;;0.00;0.00;;;;;;;;;;10481139;28;20164;-66
2021/09/12 00:36:46;;;;;;;0.28;0.00;;;;;;;;;;10474994;28;20608;-66
2021/09/12 00:41:49;;;;;;;0.00;0.00;;;;;;;;;;10471432;28;20056;-66
2021/09/12 00:46:53;;;;;;;0.00;0.00;;;;;;;;;;10460768;28;20041;-66
2021/09/12 00:51:59;;;;;;;0.00;0.00;;;;;;;;;;10469379;28;20064;-65
2021/09/12 00:57:02;;;;;;;0.00;0.00;;;;;;;;;;10471103;28;20052;-66
2021/09/12 01:02:06;;;;;;;0.00;0.00;;;;;;;;;;10463000;28;20070;-66
2021/09/12 01:07:10;;;;;;;0.00;0.00;;;;;;;;;;10472532;28;20414;-66
2021/09/12 01:12:14;;;;;;;0.00;0.00;;;;;;;;;;10472928;28;20056;-66
2021/09/12 01:17:16;;;;;;;0.00;0.00;;;;;;;;;;10473619;28;20695;-66
2021/09/12 01:22:21;;;;;;;0.00;0.00;;;;;;;;;;10472766;28;20095;-66
2021/09/12 01:27:25;;;;;;;0.00;0.00;;;;;;;;;;10459258;28;20049;-67
2021/09/12 01:32:28;;;;;;;0.00;0.00;;;;;;;;;;10473275;28;20052;-69
2021/09/12 01:37:31;;;;;;;0.00;0.00;;;;;;;;;;10479295;28;20394;-69
2021/09/12 01:42:35;;;;;;;0.00;0.00;;;;;;;;;;10478617;28;20072;-69
2021/09/12 01:47:37;;;;;;;0.00;0.00;;;;;;;;;;10475442;28;20046;-69
2021/09/12 01:52:40;;;;;;;0.00;0.00;;;;;;;;;;10477193;28;20398;-69
2021/09/12 01:57:44;;;;;;;0.00;0.00;;;;;;;;;;10468404;28;20409;-68
2021/09/12 02:02:47;;;;;;;0.00;0.00;;;;;;;;;;10480936;28;20414;-69
2021/09/12 02:07:51;;;;;;;0.00;0.00;;;;;;;;;;10482680;28;20561;-69
2021/09/12 02:12:55;;;;;;;0.00;0.00;;;;;;;;;;10476788;28;20063;-68
2021/09/12 02:17:58;;;;;;;0.00;0.00;;;;;;;;;;10480186;28;20041;-69
2021/09/12 02:23:01;;;;;;;0.00;0.00;;;;;;;;;;10479803;28;20052;-68
2021/09/12 02:28:05;;;;;;;0.00;0.00;;;;;;;;;;10477928;28;20477;-68
2021/09/12 02:33:08;;;;;;;0.00;0.00;;;;;;;;;;10474445;28;20051;-68
2021/09/12 02:38:12;;;;;;;0.00;0.00;;;;;;;;;;10476250;28;20033;-68
2021/09/12 02:43:16;;;;;;;0.00;0.00;;;;;;;;;;10457512;28;20118;-68
2021/09/12 02:48:19;;;;;;;0.00;0.00;;;;;;;;;;10472657;28;20042;-69
2021/09/12 02:53:22;;;;;;;0.03;0.00;;;;;;;;;;10473587;28;20044;-68
2021/09/12 02:58:26;;;;;;;0.00;0.00;;;;;;;;;;10473494;28;20055;-69
2021/09/12 03:03:30;;;;;;;0.00;0.00;;;;;;;;;;10461965;28;20151;-69
2021/09/12 03:08:33;;;;;;;0.00;0.00;;;;;;;;;;10472763;28;20393;-69
2021/09/12 03:13:37;;;;;;;0.00;0.00;;;;;;;;;;10475289;28;20040;-69
2021/09/12 03:18:40;;;;;;;0.00;0.00;;;;;;;;;;10476136;28;20426;-69
2021/09/12 03:23:43;;;;;;;0.00;0.00;;;;;;;;;;10473028;28;20049;-69
2021/09/12 03:28:47;;;;;;;0.00;0.00;;;;;;;;;;10463220;28;20405;-69
2021/09/12 03:33:49;;;;;;;0.00;0.00;;;;;;;;;;10474240;28;20071;-69
2021/09/12 03:38:52;;;;;;;0.00;0.00;;;;;;;;;;10475690;28;20426;-69
2021/09/12 03:43:57;;;;;;;0.47;0.00;;;;;;;;;;10472514;28;20052;-69
2021/09/12 03:48:59;;;;;;;0.00;0.00;;;;;;;;;;10468256;28;20397;-69
2021/09/12 03:54:02;;;;;;;0.00;0.00;;;;;;;;;;10471329;28;20040;-69
2021/09/12 03:59:06;;;;;;;0.00;0.00;;;;;;;;;;10469883;28;20056;-69
2021/09/12 04:04:09;;;;;;;0.00;0.00;;;;;;;;;;10473858;28;20076;-69
2021/09/12 04:09:12;;;;;;;0.00;0.00;;;;;;;;;;10473105;28;20564;-69
2021/09/12 04:14:16;;;;;;;0.30;0.20;;;;;;;;;;10470731;28;20039;-69
2021/09/12 04:19:20;;;;;;;0.00;0.00;;;;;;;;;;10471667;28;20032;-69
2021/09/12 04:24:24;;;;;;;0.00;0.00;;;;;;;;;;10469677;28;20046;-69
2021/09/12 04:29:28;;;;;;;0.00;0.00;;;;;;;;;;10467717;28;20044;-68
2021/09/12 04:34:31;;;;;;;0.00;0.00;;;;;;;;;;10483892;28;20127;-68
2021/09/12 04:39:33;;;;;;;0.00;0.00;;;;;;;;;;10478589;28;20432;-68
2021/09/12 04:44:38;;;;;;;0.00;0.00;;;;;;;;;;10470711;28;20054;-68
2021/09/12 04:49:40;;;;;;;0.00;0.00;;;;;;;;;;10457328;28;20163;-68
2021/09/12 04:54:43;;;;;;;0.00;0.00;;;;;;;;;;10471526;28;20057;-68
2021/09/12 04:59:47;;;;;;;0.00;0.00;;;;;;;;;;10472894;28;20047;-68
2021/09/12 05:04:50;;;;;;;0.00;0.00;;;;;;;;;;10469841;28;20048;-68
2021/09/12 05:09:53;;;;;;;0.40;0.20;;;;;;;;;;10478212;28;20906;-68
2021/09/12 05:14:57;;;;;;;0.10;0.10;;;;;;;;;;10478073;28;20049;-68
2021/09/12 05:20:00;;;;;;;0.00;0.00;;;;;;;;;;10479076;28;20040;-68
2021/09/12 05:25:03;;;;;;;0.00;0.00;;;;;;;;;;10472395;28;20048;-67
2021/09/12 05:30:07;;;;;;;0.00;0.00;;;;;;;;;;10466847;28;20498;-67
2021/09/12 05:35:10;;;;;;;0.00;0.00;;;;;;;;;;10453709;28;20058;-67
2021/09/12 05:40:14;;;;;;;0.00;0.00;;;;;;;;;;10465118;28;20051;-67
2021/09/12 05:45:18;;;;;;;0.00;0.00;;;;;;;;;;10465752;28;20052;-67
2021/09/12 05:50:21;;;;;;;0.00;0.00;;;;;;;;;;10472343;28;20040;-67
2021/09/12 05:55:24;;;;;;;0.00;0.00;;;;;;;;;;10476273;28;20052;-67
2021/09/12 06:00:28;;;;;;;0.00;0.00;;;;;;;;;;10475457;28;20047;-67
2021/09/12 06:05:31;;;;;;;0.00;0.00;;;;;;;;;;10465421;28;20064;-67
2021/09/12 06:10:34;;;;;;;0.00;0.00;;;;;;;;;;10465746;28;20482;-67
2021/09/12 06:15:38;;;;;;;0.10;0.10;;;;;;;;;;10464732;28;20052;-67
2021/09/12 06:20:41;;;;;;;0.30;0.20;;;;;;;;;;10466575;28;20040;-66
2021/09/12 06:25:44;;;;;;;0.68;0.55;;;;;;;;;;10468854;28;20056;-67
2021/09/12 06:30:48;;;;;;;0.20;0.10;;;;;;;;;;10459304;28;20414;-66
2021/09/12 06:35:51;;;;;;;0.00;0.00;;;;;;;;;;10465569;28;20058;-67
2021/09/12 06:40:54;;;;;;;0.45;0.20;;;;;;;;;;10467958;28;20769;-66
2021/09/12 06:45:58;;;;;;;1.83;0.98;;;;;;;;;;10462138;28;20040;-65
2021/09/12 06:51:00;;;;;;;0.77;0.50;;;;;;;;;;10461999;28;20032;-68
2021/09/12 06:56:04;;;;;;;0.00;0.00;;;;;;;;;;10464362;28;20239;-66
2021/09/12 07:01:08;;;;;;;0.00;0.00;;;;;;;;;;10463245;28;20487;-66
2021/09/12 07:06:17;;;;;;;0.00;0.00;;;;;;;;;;10461594;28;20036;-74
2021/09/12 07:11:21;;;;;;;0.00;0.00;;;;;;;;;;10465084;28;20143;-67
2021/09/12 07:16:25;;;;;;;0.00;0.00;;;;;;;;;;10463839;28;20052;-68
2021/09/12 07:21:28;;;;;;;0.00;0.00;;;;;;;;;;10448994;28;20045;-71
2021/09/12 07:26:31;;;;;;;0.00;0.00;;;;;;;;;;10460384;28;20075;-67
2021/09/12 07:31:35;;;;;;;0.00;0.00;;;;;;;;;;10461931;28;20067;-66
2021/09/12 07:36:38;;;;;;;0.00;0.00;;;;;;;;;;10461988;28;20534;-67
2021/09/12 07:41:40;;;;;;;0.00;0.00;;;;;;;;;;10463533;28;20056;-69
2021/09/12 07:46:45;;;;;;;0.00;0.00;;;;;;;;;;10459931;28;20052;-66
2021/09/12 07:51:47;;;;;;;0.00;0.00;;;;;;;;;;10455499;28;20044;-65
2021/09/12 07:56:50;;;;;;;0.00;0.00;;;;;;;;;;10455910;28;20048;-65
2021/09/12 08:01:54;;;;;;;0.00;0.00;;;;;;;;;;10461843;28;20037;-65
2021/09/12 08:06:57;;;;;;;0.00;0.00;;;;;;;;;;10456082;28;20044;-66
2021/09/12 08:12:00;;;;;;;0.00;0.00;;;;;;;;;;10461984;28;20059;-65
2021/09/12 08:17:04;;;;;;;0.00;0.00;;;;;;;;;;10465846;28;20769;-65
2021/09/12 08:22:07;;;;;;;0.00;0.00;;;;;;;;;;10456629;28;20102;-66
2021/09/12 08:27:10;;;;;;;0.00;0.00;;;;;;;;;;10449993;28;20129;-66
2021/09/12 08:32:14;;;;;;;0.03;0.00;;;;;;;;;;10468102;28;20258;-66
2021/09/12 08:37:16;;;;;;;0.00;0.00;;;;;;;;;;10455778;28;20056;-66
2021/09/12 08:42:20;;;;;;;0.00;0.00;;;;;;;;;;10450266;28;20513;-66
2021/09/12 08:47:26;;;;;;;0.00;0.00;;;;;;;;;;10459135;28;20131;-66
2021/09/12 08:52:29;;;;;;;0.00;0.00;;;;;;;;;;10448580;28;20491;-66
2021/09/12 08:57:32;;;;;;;0.00;0.00;;;;;;;;;;10454831;28;20051;-66
2021/09/12 09:02:39;;;;;;;0.00;0.00;;;;;;;;;;10456827;28;20114;-66
2021/09/12 09:07:42;;;;;;;0.00;0.00;;;;;;;;;;10459835;28;20036;-66
2021/09/12 09:12:45;;;;;;;0.00;0.00;;;;;;;;;;10453396;28;20036;-65
2021/09/12 09:17:51;;;;;;;0.00;0.00;;;;;;;;;;10457656;28;20079;-65
2021/09/12 09:22:57;;;;;;;0.00;0.00;;;;;;;;;;10452968;28;20040;-66
2021/09/12 09:28:02;;;;;;;0.00;0.00;;;;;;;;;;10470940;28;20406;-66
2021/09/12 09:33:15;;;;;;;0.00;0.00;;;;;;;;;;10459238;28;20049;-66
2021/09/12 09:38:18;;;;;;;0.00;0.00;;;;;;;;;;10465826;28;20059;-65
2021/09/12 09:43:21;;;;;;;0.00;0.00;;;;;;;;;;10465478;28;20068;-66
2021/09/12 09:48:31;;;;;;;0.00;0.00;;;;;;;;;;10468086;28;20036;-66
2021/09/12 09:53:35;;;;;;;0.00;0.00;;;;;;;;;;10469791;28;20490;-66
2021/09/12 09:58:38;;;;;;;0.00;0.00;;;;;;;;;;10477720;28;20045;-66
2021/09/12 10:03:43;;;;;;;0.00;0.00;;;;;;;;;;10493753;28;20580;-66
2021/09/12 10:08:46;;;;;;;0.00;0.00;;;;;;;;;;10468292;28;20056;-66
2021/09/12 10:13:50;;;;;;;0.00;0.00;;;;;;;;;;10477836;28;20048;-66
2021/09/12 10:18:54;;;;;;;0.00;0.00;;;;;;;;;;10473675;28;20054;-66
2021/09/12 10:23:58;;;;;;;0.00;0.00;;;;;;;;;;10474610;28;20052;-66
2021/09/12 10:29:01;;;;;;;0.00;0.00;;;;;;;;;;10489698;28;20048;-66
2021/09/12 10:34:06;;;;;;;0.00;0.00;;;;;;;;;;10477266;28;20429;-66
2021/09/12 10:39:27;;;;;;;0.00;0.00;;;;;;;;;;10475627;28;20156;-67
2021/09/12 10:44:30;;;;;;;0.00;0.00;;;;;;;;;;10472329;28;20047;-66
2021/09/12 10:49:34;;;;;;;0.00;0.00;;;;;;;;;;10472382;28;20412;-67
2021/09/12 10:54:52;;;;;;;0.00;0.00;;;;;;;;;;10458617;28;20063;-66
2021/09/12 10:59:55;;;;;;;0.00;0.00;;;;;;;;;;10461057;28;20048;-65
2021/09/12 11:05:00;;;;;;;0.00;0.00;;;;;;;;;;10470048;28;20040;-67
2021/09/12 11:10:03;;;;;;;0.00;0.00;;;;;;;;;;10471633;28;20120;-67
2021/09/12 11:15:07;;;;;;;0.00;0.00;;;;;;;;;;10473893;28;20052;-68
2021/09/12 11:20:11;;;;;;;0.00;0.00;;;;;;;;;;10468268;28;20112;-67
2021/09/12 11:25:14;;;;;;;0.00;0.00;;;;;;;;;;10462391;28;20053;-67
2021/09/12 11:30:17;;;;;;;0.00;0.00;;;;;;;;;;10477583;28;20045;-66
2021/09/12 11:35:22;;;;;;;0.00;0.00;;;;;;;;;;10470277;28;20051;-66
2021/09/12 11:40:25;;;;;;;0.00;0.00;;;;;;;;;;10471877;28;20053;-65
2021/09/12 11:45:28;;;;;;;0.00;0.00;;;;;;;;;;10475015;28;20052;-66
2021/09/12 11:50:32;;;;;;;0.00;0.00;;;;;;;;;;10467461;28;20041;-70
2021/09/12 11:55:40;;;;;;;0.00;0.00;;;;;;;;;;10464203;28;20060;-71
2021/09/12 12:00:44;;;;;;;0.00;0.00;;;;;;;;;;10473280;28;21292;-70
2021/09/12 12:05:48;;;;;;;0.00;0.00;;;;;;;;;;10472355;28;20044;-68
2021/09/12 12:10:51;;;;;;;0.00;0.00;;;;;;;;;;10456440;28;20071;-69
2021/09/12 12:15:58;;;;;;;0.00;0.00;;;;;;;;;;10470306;28;20051;-69
2021/09/12 12:21:12;;;;;;;0.00;0.00;;;;;;;;;;10470337;28;20158;-66
2021/09/12 12:26:20;;;;;;;0.00;0.00;;;;;;;;;;10468897;28;20060;-66
2021/09/12 12:31:23;;;;;;;0.00;0.00;;;;;;;;;;10467928;28;20109;-66
2021/09/12 12:36:27;;;;;;;0.05;0.00;;;;;;;;;;10466589;28;20526;-66
2021/09/12 12:41:29;;;;;;;0.00;0.00;;;;;;;;;;10465008;28;20036;-66
2021/09/12 12:46:43;;;;;;;0.00;0.00;;;;;;;;;;10449951;28;20053;-66
2021/09/12 12:52:00;;;;;;;0.00;0.00;;;;;;;;;;10467146;28;20445;-66
2021/09/12 12:57:03;;;;;;;0.00;0.00;;;;;;;;;;10465675;28;20958;-66
2021/09/12 13:02:31;;;;;;;0.00;0.00;;;;;;;;;;10467185;28;20052;-66
2021/09/12 13:07:35;;;;;;;0.00;0.00;;;;;;;;;;10465499;28;20094;-66
2021/09/12 13:12:38;;;;;;;0.00;0.00;;;;;;;;;;10465192;28;20402;-66
2021/09/12 13:17:47;;;;;;;0.00;0.00;;;;;;;;;;10469075;28;20470;-66
2021/09/12 13:22:51;;;;;;;0.00;0.00;;;;;;;;;;10467114;28;20402;-66
2021/09/12 13:27:55;;;;;;;0.00;0.00;;;;;;;;;;10466459;28;20122;-66
2021/09/12 13:32:58;;;;;;;0.00;0.00;;;;;;;;;;10457954;28;20045;-66
2021/09/12 13:38:03;;;;;;;0.00;0.00;;;;;;;;;;10474871;28;20506;-67
2021/09/12 13:43:05;;;;;;;0.00;0.00;;;;;;;;;;10474212;28;20029;-65
2021/09/12 13:48:08;;;;;;;0.00;0.00;;;;;;;;;;10477288;28;20103;-66
2021/09/12 13:53:13;;;;;;;0.00;0.00;;;;;;;;;;10480591;28;20123;-67
2021/09/12 13:58:16;;;;;;;0.00;0.00;;;;;;;;;;10481089;28;20051;-66
2021/09/12 14:03:19;;;;;;;0.00;0.00;;;;;;;;;;10482193;28;20048;-66
2021/09/12 14:08:23;;;;;;;0.00;0.00;;;;;;;;;;10479169;28;20052;-65
2021/09/12 14:13:27;;;;;;;0.00;0.00;;;;;;;;;;10482202;28;20044;-66
2021/09/12 14:18:31;;;;;;;0.00;0.00;;;;;;;;;;10475870;28;20044;-65
2021/09/12 14:23:35;;;;;;;0.00;0.00;;;;;;;;;;10478360;28;20119;-65
2021/09/12 14:28:38;;;;;;;0.00;0.00;;;;;;;;;;10474873;28;20115;-66
2021/09/12 14:33:41;;;;;;;0.00;0.00;;;;;;;;;;10474865;28;20047;-66
2021/09/12 14:38:45;;;;;;;0.00;0.00;;;;;;;;;;10475755;28;20131;-66
2021/09/12 14:43:48;;;;;;;0.00;0.00;;;;;;;;;;10474873;28;20037;-66
2021/09/12 14:48:50;;;;;;;0.00;0.00;;;;;;;;;;10463398;28;20052;-66
2021/09/12 14:53:55;;;;;;;0.00;0.00;;;;;;;;;;10475999;28;20469;-65
2021/09/12 14:58:58;;;;;;;0.00;0.00;;;;;;;;;;10474495;28;20062;-65
2021/09/12 15:04:01;;;;;;;0.00;0.00;;;;;;;;;;10476532;28;20052;-65
2021/09/12 15:09:06;;;;;;;0.00;0.00;;;;;;;;;;10468637;28;20052;-65
2021/09/12 15:14:10;;;;;;;0.00;0.00;;;;;;;;;;10475810;28;20044;-65
2021/09/12 15:19:13;;;;;;;0.00;0.00;;;;;;;;;;10476164;28;20117;-66
2021/09/12 15:24:17;;;;;;;0.00;0.00;;;;;;;;;;10455820;28;20049;-65
2021/09/12 15:29:20;;;;;;;0.00;0.00;;;;;;;;;;10474425;28;20425;-65
2021/09/12 15:34:23;;;;;;;0.00;0.00;;;;;;;;;;10481320;28;20051;-66
2021/09/12 15:39:27;;;;;;;0.00;0.00;;;;;;;;;;10479321;28;20529;-66
2021/09/12 15:44:30;;;;;;;0.00;0.00;;;;;;;;;;10472814;28;20047;-66
2021/09/12 15:49:33;;;;;;;0.00;0.00;;;;;;;;;;10469589;28;20866;-66
2021/09/12 15:54:38;;;;;;;0.00;0.00;;;;;;;;;;10465969;28;20406;-66
2021/09/12 15:59:41;;;;;;;0.00;0.00;;;;;;;;;;10483684;28;20524;-65
2021/09/12 16:04:43;;;;;;;0.00;0.00;;;;;;;;;;10470064;28;20045;-65
2021/09/12 16:09:47;;;;;;;0.00;0.00;;;;;;;;;;10474055;28;20058;-66
2021/09/12 16:14:51;;;;;;;0.00;0.00;;;;;;;;;;10469325;28;20036;-65
2021/09/12 16:19:54;;;;;;;0.00;0.00;;;;;;;;;;10474111;28;20596;-65
2021/09/12 16:24:58;;;;;;;0.00;0.00;;;;;;;;;;10474167;28;20475;-66
2021/09/12 16:30:01;;;;;;;0.00;0.00;;;;;;;;;;10467834;28;20466;-66
2021/09/12 16:35:04;;;;;;;0.00;0.00;;;;;;;;;;10470897;28;20033;-66
2021/09/12 16:40:09;;;;;;;0.00;0.00;;;;;;;;;;10473712;28;20133;-65
2021/09/12 16:45:22;;;;;;;0.00;0.00;;;;;;;;;;10468636;28;20052;-66
2021/09/12 16:50:25;;;;;;;0.00;0.00;;;;;;;;;;10472110;28;20116;-71
2021/09/12 16:55:29;;;;;;;0.00;0.00;;;;;;;;;;10472851;28;20059;-67
2021/09/12 17:00:32;;;;;;;0.00;0.00;;;;;;;;;;10467065;28;20048;-70
2021/09/12 17:05:36;;;;;;;0.00;0.00;;;;;;;;;;10483397;28;20048;-76
2021/09/12 17:10:40;;;;;;;0.00;0.00;;;;;;;;;;10482886;28;20871;-70
2021/09/12 17:15:44;;;;;;;0.00;0.00;;;;;;;;;;10482925;28;20151;-64
2021/09/12 17:20:47;;;;;;;0.00;0.00;;;;;;;;;;10480807;28;20410;-65
2021/09/12 17:25:51;;;;;;;0.00;0.00;;;;;;;;;;10484577;28;20048;-65
2021/09/12 17:30:54;;;;;;;0.00;0.00;;;;;;;;;;10479282;28;20048;-64
2021/09/12 17:35:57;;;;;;;0.00;0.00;;;;;;;;;;10481744;28;20115;-64
2021/09/12 17:41:01;;;;;;;0.00;0.00;;;;;;;;;;10482293;28;20055;-65
2021/09/12 17:46:04;;;;;;;0.00;0.00;;;;;;;;;;10480885;28;20052;-65
2021/09/12 17:51:07;;;;;;;0.00;0.00;;;;;;;;;;10471784;28;20048;-64
2021/09/12 17:56:11;;;;;;;0.00;0.00;;;;;;;;;;10486254;28;20818;-63
2021/09/12 18:01:14;;;;;;;0.00;0.00;;;;;;;;;;10477028;28;20048;-64
2021/09/12 18:06:17;;;;;;;0.00;0.00;;;;;;;;;;10486165;28;20052;-63
2021/09/12 18:11:21;;;;;;;0.00;0.00;;;;;;;;;;10485365;28;20421;-64
2021/09/12 18:16:24;;;;;;;0.00;0.00;;;;;;;;;;10483789;28;20048;-64
2021/09/12 18:21:27;;;;;;;0.00;0.00;;;;;;;;;;10465441;28;20053;-65
2021/09/12 18:26:32;;;;;;;0.00;0.00;;;;;;;;;;10456681;28;20044;-64
2021/09/12 18:31:35;;;;;;;0.00;0.00;;;;;;;;;;10471141;28;20483;-62
2021/09/12 18:36:37;;;;;;;0.00;0.00;;;;;;;;;;10462338;28;20064;-66
2021/09/12 18:41:43;;;;;;;0.00;0.00;;;;;;;;;;10472743;28;20068;-62
2021/09/12 18:46:45;;;;;;;0.00;0.00;;;;;;;;;;10480856;28;20051;-63
2021/09/12 18:51:49;;;;;;;0.00;0.00;;;;;;;;;;10466319;28;20056;-61
2021/09/12 18:56:53;;;;;;;0.00;0.00;;;;;;;;;;10476815;28;20036;-63
2021/09/12 19:01:56;;;;;;;0.00;0.00;;;;;;;;;;10476979;28;20500;-63
2021/09/12 19:07:00;;;;;;;0.00;0.00;;;;;;;;;;10476943;28;20756;-64
2021/09/12 19:12:06;;;;;;;0.00;0.00;;;;;;;;;;10473842;28;20040;-66
2021/09/12 19:17:16;;;;;;;0.00;0.00;;;;;;;;;;10475205;28;20037;-63
2021/09/12 19:22:19;;;;;;;0.00;0.00;;;;;;;;;;10481853;28;20046;-69
2021/09/12 19:27:24;;;;;;;0.00;0.00;;;;;;;;;;10464563;28;20090;-67
2021/09/12 19:32:29;;;;;;;0.00;0.00;;;;;;;;;;10472329;28;20039;-64
2021/09/12 19:37:33;;;;;;;0.00;0.00;;;;;;;;;;10469860;28;20039;-66
2021/09/12 19:42:37;;;;;;;0.00;0.00;;;;;;;;;;10489284;28;20051;-66
2021/09/12 19:47:41;;;;;;;0.00;0.00;;;;;;;;;;10514325;28;20633;-68
2021/09/12 19:52:44;;;;;;;0.00;0.00;;;;;;;;;;10510873;28;20398;-63
2021/09/12 19:57:49;;;;;;;0.00;0.00;;;;;;;;;;10511213;28;20040;-64
2021/09/12 20:02:54;;;;;;;0.00;0.00;;;;;;;;;;10508936;28;20036;-65
2021/09/12 20:07:58;;;;;;;0.00;0.00;;;;;;;;;;10491255;28;20052;-64
2021/09/12 20:13:17;;;;;;;0.00;0.00;;;;;;;;;;10507870;28;20043;-61
2021/09/12 20:18:21;;;;;;;0.00;0.00;;;;;;;;;;10511143;28;20043;-63
2021/09/12 20:23:25;;;;;;;0.00;0.00;;;;;;;;;;10510196;28;20503;-66
2021/09/12 20:28:30;;;;;;;0.00;0.00;;;;;;;;;;10508463;28;20125;-64
2021/09/12 20:33:35;;;;;;;0.00;0.00;;;;;;;;;;10509394;28;20075;-64
2021/09/12 20:38:39;;;;;;;0.00;0.00;;;;;;;;;;10509073;28;20036;-64
2021/09/12 20:43:44;;;;;;;0.00;0.00;;;;;;;;;;10508228;28;20197;-63
2021/09/12 20:48:48;;;;;;;0.00;0.00;;;;;;;;;;10510371;28;20153;-61
2021/09/12 20:53:52;;;;;;;0.00;0.00;;;;;;;;;;10508752;28;20040;-63
2021/09/12 20:58:56;;;;;;;0.00;0.00;;;;;;;;;;10510895;28;20056;-61
2021/09/12 21:03:59;;;;;;;0.00;0.00;;;;;;;;;;10511146;28;20033;-62
2021/09/12 21:09:02;;;;;;;0.00;0.00;;;;;;;;;;10512085;28;20114;-63
2021/09/12 21:14:06;;;;;;;0.00;0.00;;;;;;;;;;10509149;28;20478;-63
2021/09/12 21:19:09;;;;;;;0.00;0.00;;;;;;;;;;10496544;28;20803;-62
2021/09/12 21:24:12;;;;;;;0.00;0.00;;;;;;;;;;10511206;28;20074;-62
2021/09/12 21:29:16;;;;;;;0.00;0.00;;;;;;;;;;10509872;28;20039;-63
2021/09/12 21:34:19;;;;;;;0.00;0.00;;;;;;;;;;10512082;28;20097;-62
2021/09/12 21:39:22;;;;;;;0.00;0.00;;;;;;;;;;10498321;28;20059;-63
2021/09/12 21:44:26;;;;;;;0.00;0.00;;;;;;;;;;10510765;28;20044;-62
2021/09/12 21:49:29;;;;;;;0.00;0.00;;;;;;;;;;10512215;28;20048;-63
2021/09/12 21:54:31;;;;;;;0.00;0.00;;;;;;;;;;10503468;28;20564;-63
2021/09/12 21:59:38;;;;;;;0.00;0.00;;;;;;;;;;10517464;28;20048;-62
2021/09/12 22:04:41;;;;;;;0.00;0.00;;;;;;;;;;10517598;28;20040;-63
2021/09/12 22:09:44;;;;;;;0.00;0.00;;;;;;;;;;10519109;28;20050;-62
2021/09/12 22:14:48;;;;;;;0.00;0.00;;;;;;;;;;10518543;28;20542;-63
2021/09/12 22:19:53;;;;;;;0.00;0.00;;;;;;;;;;10515839;28;20051;-63
2021/09/12 22:24:57;;;;;;;0.00;0.00;;;;;;;;;;10518217;28;20040;-62
2021/09/12 22:30:02;;;;;;;0.00;0.00;;;;;;;;;;10516681;28;20036;-62
2021/09/12 22:35:06;;;;;;;0.00;0.00;;;;;;;;;;10503778;28;20054;-62
2021/09/12 22:40:09;;;;;;;0.00;0.00;;;;;;;;;;10517311;28;20058;-63
2021/09/12 22:45:13;;;;;;;0.00;0.00;;;;;;;;;;10516905;28;20058;-62
2021/09/12 22:50:16;;;;;;;0.00;0.00;;;;;;;;;;10518188;28;20046;-63
2021/09/12 22:55:19;;;;;;;0.00;0.00;;;;;;;;;;10516648;28;20040;-62
2021/09/12 23:00:23;;;;;;;0.00;0.00;;;;;;;;;;10515139;28;20490;-63
2021/09/12 23:05:27;;;;;;;0.00;0.00;;;;;;;;;;10516362;28;20042;-63
2021/09/12 23:10:31;;;;;;;0.00;0.00;;;;;;;;;;10515463;28;20157;-62
2021/09/12 23:15:35;;;;;;;0.00;0.00;;;;;;;;;;10504847;28;20177;-62
2021/09/12 23:20:38;;;;;;;0.00;0.00;;;;;;;;;;10515375;28;20568;-63
2021/09/12 23:25:41;;;;;;;0.00;0.00;;;;;;;;;;10498259;28;20044;-62
2021/09/12 23:30:45;;;;;;;0.00;0.00;;;;;;;;;;10515797;28;20048;-62
2021/09/12 23:35:48;;;;;;;0.00;0.00;;;;;;;;;;10514463;28;20044;-62
2021/09/12 23:40:50;;;;;;;0.00;0.00;;;;;;;;;;10514713;28;20056;-62
2021/09/12 23:45:55;;;;;;;0.00;0.00;;;;;;;;;;10514482;28;20081;-62
2021/09/12 23:50:57;;;;;;;0.00;0.00;;;;;;;;;;10514488;28;20048;-62
2021/09/12 23:56:00;;;;;;;0.00;0.00;;;;;;;;;;10511571;28;20056;-62
